Time;durP1;ratioP1;P1;durP2;ratioP2;P2;SDS_P1;SDS_P2;PMS_P1;PMS_P2;Temp;Humidity;BMP_temperature;BMP_pressure;BME280_temperature;BME280_humidity;BME280_pressure;Samples;Min_cycle;Max_cycle;Signal;HPM_P1;HPM_P2
2023/06/25 00:01:37;;;;;;;;;8.00;7.25;;;;;25.76;44.87;101383.66;5114662;27;45915;-77
2023/06/25 00:04:03;;;;;;;;;7.00;7.00;;;;;25.79;45.32;101388.00;5113975;27;45554;-75
2023/06/25 00:06:28;;;;;;;;;9.25;8.00;;;;;25.59;46.75;101355.03;5103748;27;45498;-75
2023/06/25 00:08:54;;;;;;;;;11.00;8.50;;;;;25.51;45.81;101343.84;5093392;27;45788;-79
2023/06/25 00:11:19;;;;;;;;;8.25;7.00;;;;;25.18;45.76;101295.47;5094928;27;45471;-74
2023/06/25 00:13:45;;;;;;;;;7.00;7.00;;;;;25.70;45.53;101388.47;5096235;27;46157;-74
2023/06/25 00:16:11;;;;;;;;;8.50;6.75;;;;;25.77;45.47;101385.41;5075308;27;45414;-74
2023/06/25 00:18:37;;;;;;;;;9.50;8.00;;;;;25.51;45.90;101345.66;5095042;27;45327;-76
2023/06/25 00:21:04;;;;;;;;;6.75;6.25;;;;;25.42;45.91;101338.06;5075792;27;45444;-76
2023/06/25 00:23:30;;;;;;;;;6.50;6.00;;;;;25.58;46.00;101372.09;5076237;27;46728;-76
2023/06/25 00:25:55;;;;;;;;;8.00;7.75;;;;;25.19;45.84;101302.56;5095031;27;45446;-77
2023/06/25 00:28:21;;;;;;;;;9.50;8.50;;;;;25.44;46.22;101345.09;5095328;27;45723;-74
2023/06/25 00:30:47;;;;;;;;;8.75;8.75;;;;;25.41;46.00;101333.63;5093597;27;45417;-77
2023/06/25 00:33:13;;;;;;;;;9.25;7.00;;;;;25.54;46.19;101362.44;5093791;27;46254;-78
2023/06/25 00:35:50;;;;;;;;;8.25;7.50;;;;;25.53;46.08;101366.09;5093455;27;45556;-78
2023/06/25 00:38:16;;;;;;;;;8.00;7.00;;;;;25.47;46.12;101365.53;5094137;27;45428;-76
2023/06/25 00:40:42;;;;;;;;;6.00;6.00;;;;;25.38;46.21;101361.47;5094202;27;45473;-76
2023/06/25 00:43:08;;;;;;;;;6.00;4.00;;;;;25.28;46.34;101336.94;5075926;27;46387;-76
2023/06/25 00:45:34;;;;;;;;;9.50;8.50;;;;;25.37;46.25;101346.34;5093373;27;45444;-75
2023/06/25 00:48:01;;;;;;;;;9.50;8.75;;;;;25.25;46.19;101317.44;5093219;27;45679;-76
2023/06/25 00:50:27;;;;;;;;;9.67;7.67;;;;;25.23;46.27;101308.66;5093973;27;45898;-76
2023/06/25 00:52:56;;;;;;;;;8.50;6.50;;;;;25.36;46.68;101342.78;5107248;27;46218;-76
2023/06/25 00:55:25;;;;;;;;;8.00;8.00;;;;;25.28;46.67;101342.31;5117654;27;45460;-76
2023/06/25 00:57:52;;;;;;;;;7.33;7.33;;;;;25.02;46.19;101295.31;5121081;27;45488;-76
2023/06/25 01:00:19;;;;;;;;;10.00;6.75;;;;;24.78;46.71;101248.31;5117914;27;45493;-78
2023/06/25 01:03:31;;;;;;;;;8.50;6.50;;;;;25.21;46.28;101322.13;5117463;27;45616;-77
2023/06/25 01:06:10;;;;;;;;;8.33;6.67;;;;;25.08;46.73;101289.69;5094885;27;45601;-76
2023/06/25 01:08:37;;;;;;;;;8.50;7.25;;;;;25.28;46.26;101328.03;5107837;27;45517;-76
2023/06/25 01:11:05;;;;;;;;;10.00;10.00;;;;;25.04;46.69;101297.94;5094352;27;45794;-77
2023/06/25 01:13:31;;;;;;;;;8.00;8.00;;;;;24.96;46.94;101304.56;5106424;27;45949;-76
2023/06/25 01:15:57;;;;;;;;;11.00;9.00;;;;;25.12;46.67;101322.53;5109067;27;45477;-76
2023/06/25 01:18:23;;;;;;;;;8.33;6.67;;;;;24.71;46.99;101258.47;5099549;27;45534;-77
2023/06/25 01:20:56;;;;;;;;;11.67;10.00;;;;;24.83;46.59;101275.75;5107522;27;45430;-76
2023/06/25 01:23:22;;;;;;;;;9.33;8.00;;;;;24.83;47.19;101283.78;5107201;27;46519;-76
2023/06/25 01:25:48;;;;;;;;;8.33;6.33;;;;;25.05;46.96;101313.06;5110057;27;45699;-76
2023/06/25 01:28:19;;;;;;;;;6.25;6.25;;;;;24.74;46.50;101261.84;5107847;27;45484;-77
2023/06/25 01:30:52;;;;;;;;;7.00;7.00;;;;;25.15;46.79;101327.72;5106483;27;45525;-76
2023/06/25 01:33:22;;;;;;;;;8.00;7.67;;;;;24.97;46.87;101322.34;5106839;27;45567;-77
2023/06/25 01:35:48;;;;;;;;;7.67;7.67;;;;;24.80;47.20;101297.34;5095133;27;46010;-76
2023/06/25 01:38:14;;;;;;;;;8.00;5.75;;;;;24.62;47.24;101275.84;5108465;27;45577;-76
2023/06/25 01:40:40;;;;;;;;;7.00;6.00;;;;;24.92;47.48;101319.03;5104881;27;45608;-76
2023/06/25 01:43:06;;;;;;;;;7.50;6.25;;;;;25.01;47.53;101317.72;5106074;27;46171;-76
2023/06/25 01:45:32;;;;;;;;;9.67;8.33;;;;;24.61;47.12;101243.78;5103639;27;45491;-76
2023/06/25 01:47:58;;;;;;;;;12.33;10.00;;;;;24.63;47.00;101249.91;5107151;27;45557;-75
2023/06/25 01:50:24;;;;;;;;;10.00;8.67;;;;;24.87;46.86;101283.56;5104542;27;45499;-75
2023/06/25 01:52:50;;;;;;;;;8.00;7.25;;;;;25.02;47.05;101310.53;5109103;27;45824;-75
2023/06/25 01:55:16;;;;;;;;;6.33;5.33;;;;;24.73;46.88;101257.44;5117144;27;45598;-76
2023/06/25 01:57:42;;;;;;;;;6.00;6.00;;;;;25.10;46.43;101309.19;5120970;27;45428;-76
2023/06/25 02:00:10;;;;;;;;;10.33;7.00;;;;;25.04;46.23;101288.09;5119430;27;45489;-77
2023/06/25 02:02:36;;;;;;;;;8.50;6.75;;;;;24.96;46.26;101282.22;5120735;27;46534;-77
2023/06/25 02:05:03;;;;;;;;;5.00;5.00;;;;;24.87;46.76;101269.31;5117509;27;45451;-76
2023/06/25 02:07:29;;;;;;;;;6.67;6.67;;;;;24.85;46.59;101269.38;5099570;27;45317;-75
2023/06/25 02:09:55;;;;;;;;;10.33;6.67;;;;;24.83;46.82;101273.94;5096386;27;45410;-76
2023/06/25 02:12:20;;;;;;;;;9.00;7.25;;;;;24.43;46.46;101213.38;5095703;27;45823;-76
2023/06/25 02:14:46;;;;;;;;;7.00;7.00;;;;;24.90;46.82;101295.94;5096064;27;45491;-76
2023/06/25 02:17:11;;;;;;;;;5.33;5.33;;;;;24.60;46.53;101240.22;5096386;27;45490;-75
2023/06/25 02:19:37;;;;;;;;;4.33;3.67;;;;;24.83;47.02;101283.78;5096157;27;45291;-78
2023/06/25 02:22:03;;;;;;;;;8.50;6.00;;;;;24.85;46.63;101293.47;5096071;27;45518;-77
2023/06/25 02:24:29;;;;;;;;;11.33;6.67;;;;;24.81;46.70;101286.53;5099503;27;45405;-77
2023/06/25 02:26:56;;;;;;;;;8.00;5.75;;;;;24.70;46.33;101268.31;5099603;27;45472;-77
2023/06/25 02:29:21;;;;;;;;;7.50;6.00;;;;;24.81;46.46;101286.53;5096864;27;45535;-77
2023/06/25 02:31:47;;;;;;;;;9.00;7.50;;;;;24.47;46.37;101233.75;5095092;27;45497;-77
2023/06/25 02:34:20;;;;;;;;;6.00;6.00;;;;;24.72;46.74;101274.44;5094964;27;45672;-77
2023/06/25 02:36:45;;;;;;;;;5.75;5.75;;;;;24.69;46.51;101266.56;5095307;27;45364;-76
2023/06/25 02:39:11;;;;;;;;;5.50;4.50;;;;;24.71;46.52;101258.47;5093862;27;45376;-76
2023/06/25 02:41:36;;;;;;;;;8.00;6.67;;;;;24.34;46.88;101217.34;5097394;27;46140;-77
2023/06/25 02:44:03;;;;;;;;;6.67;6.67;;;;;24.36;46.76;101214.63;5096803;27;45458;-76
2023/06/25 02:46:28;;;;;;;;;8.67;6.00;;;;;24.36;46.83;101217.28;5095403;27;45371;-76
2023/06/25 02:48:54;;;;;;;;;8.50;8.00;;;;;24.51;46.41;101238.88;5095527;27;45575;-76
2023/06/25 02:51:20;;;;;;;;;6.00;5.33;;;;;24.26;46.84;101219.53;5097806;27;46847;-77
2023/06/25 02:53:45;;;;;;;;;6.33;6.33;;;;;24.51;46.36;101262.09;5099258;27;45370;-75
2023/06/25 02:56:11;;;;;;;;;5.67;5.67;;;;;24.54;46.65;101262.81;5097231;27;45461;-75
2023/06/25 02:58:37;;;;;;;;;6.00;6.00;;;;;24.45;46.64;101240.94;5095082;27;45751;-76
2023/06/25 03:01:03;;;;;;;;;3.67;3.33;;;;;24.51;46.36;101267.44;5095051;27;45536;-75
2023/06/25 03:03:29;;;;;;;;;5.67;5.33;;;;;24.02;46.31;101193.00;5093655;27;45469;-77
2023/06/25 03:05:54;;;;;;;;;8.33;6.00;;;;;24.28;46.77;101234.59;5105341;27;45372;-77
2023/06/25 03:08:21;;;;;;;;;7.00;5.67;;;;;24.37;46.62;101252.03;5116059;27;45381;-77
2023/06/25 03:10:47;;;;;;;;;7.33;7.33;;;;;24.00;46.41;101199.38;5117496;27;46131;-75
2023/06/25 03:13:16;;;;;;;;;8.67;8.00;;;;;24.47;46.27;101265.88;5119295;27;45417;-78
2023/06/25 03:15:41;;;;;;;;;6.33;5.00;;;;;24.34;46.38;101242.34;5097270;27;45479;-76
2023/06/25 03:18:07;;;;;;;;;9.00;5.67;;;;;24.48;47.04;101276.50;5115267;27;45587;-76
2023/06/25 03:20:33;;;;;;;;;9.67;6.67;;;;;24.15;46.60;101230.75;5115227;27;46034;-75
2023/06/25 03:22:58;;;;;;;;;5.00;5.00;;;;;24.40;47.00;101270.63;5115699;27;45372;-76
2023/06/25 03:25:24;;;;;;;;;6.00;6.00;;;;;24.19;47.21;101248.41;5115523;27;45454;-75
2023/06/25 03:27:50;;;;;;;;;4.67;4.33;;;;;24.26;46.80;101257.00;5117070;27;45565;-76
2023/06/25 03:30:16;;;;;;;;;8.00;5.67;;;;;24.11;46.91;101227.34;5119592;27;45472;-77
2023/06/25 03:32:42;;;;;;;;;5.00;4.25;;;;;24.15;47.43;101238.78;5115278;27;45455;-77
2023/06/25 03:35:08;;;;;;;;;9.67;5.00;;;;;24.15;47.05;101238.78;5115320;27;45358;-75
2023/06/25 03:37:34;;;;;;;;;7.00;6.00;;;;;23.98;47.81;101214.63;5115543;27;45428;-75
2023/06/25 03:39:59;;;;;;;;;8.00;6.33;;;;;24.25;47.58;101257.94;5115481;27;45762;-76
2023/06/25 03:42:25;;;;;;;;;7.00;6.00;;;;;23.99;47.14;101197.59;5115233;27;45473;-76
2023/06/25 03:44:53;;;;;;;;;5.33;5.33;;;;;24.12;47.54;101221.06;5118650;27;45379;-76
2023/06/25 03:47:19;;;;;;;;;6.33;6.33;;;;;24.24;47.89;101250.88;5115319;27;45453;-75
2023/06/25 03:49:45;;;;;;;;;7.00;6.33;;;;;24.22;47.55;101247.38;5114634;27;46482;-76
2023/06/25 03:52:11;;;;;;;;;5.25;5.00;;;;;23.82;47.59;101185.03;5116288;27;45299;-76
2023/06/25 03:54:37;;;;;;;;;6.33;5.67;;;;;24.19;47.43;101239.50;5116942;27;45605;-77
2023/06/25 03:57:02;;;;;;;;;6.00;6.00;;;;;24.10;47.73;101230.97;5115356;27;45244;-76
2023/06/25 03:59:29;;;;;;;;;8.67;5.33;;;;;24.01;48.14;101217.13;5096259;27;46896;-77
2023/06/25 04:01:54;;;;;;;;;6.67;6.33;;;;;24.03;47.93;101213.44;5096932;27;45475;-76
2023/06/25 04:04:20;;;;;;;;;6.00;6.00;;;;;24.10;48.25;101224.75;5100844;27;45374;-76
2023/06/25 04:06:46;;;;;;;;;8.00;7.67;;;;;23.97;48.44;101199.53;5099860;27;45436;-76
2023/06/25 04:09:12;;;;;;;;;6.75;6.25;;;;;24.18;47.95;101249.34;5098447;27;45434;-76
2023/06/25 04:11:37;;;;;;;;;9.67;7.00;;;;;24.15;47.41;101240.59;5094757;27;45287;-77
2023/06/25 04:14:03;;;;;;;;;8.00;6.67;;;;;24.19;47.99;101248.41;5094217;27;45376;-75
2023/06/25 04:16:29;;;;;;;;;6.33;5.33;;;;;24.10;47.74;101224.75;5094957;27;45559;-76
2023/06/25 04:18:54;;;;;;;;;5.33;5.33;;;;;24.24;47.98;101246.38;5093960;27;46103;-75
2023/06/25 04:21:20;;;;;;;;;8.00;7.00;;;;;24.19;47.94;101226.13;5094313;27;45556;-76
2023/06/25 04:23:46;;;;;;;;;9.00;6.33;;;;;23.95;47.88;101186.19;5095985;27;45361;-77
2023/06/25 04:26:12;;;;;;;;;8.33;7.33;;;;;24.39;47.96;101236.75;5098744;27;45355;-77
2023/06/25 04:28:37;;;;;;;;;9.00;7.00;;;;;24.45;47.91;101232.91;5097931;27;45347;-77
2023/06/25 04:31:03;;;;;;;;;5.67;5.67;;;;;24.24;47.40;101198.19;5075240;27;45383;-78
2023/06/25 04:33:30;;;;;;;;;7.00;6.67;;;;;24.29;47.79;101208.69;5098592;27;45338;-76
2023/06/25 04:35:55;;;;;;;;;5.67;5.67;;;;;24.11;48.47;101179.19;5102171;27;45427;-76
2023/06/25 04:38:21;;;;;;;;;7.33;6.00;;;;;24.27;48.07;101210.56;5102475;27;46100;-76
2023/06/25 04:40:47;;;;;;;;;5.33;5.33;;;;;24.43;48.24;101243.69;5102529;27;45403;-77
2023/06/25 04:43:13;;;;;;;;;8.33;7.67;;;;;24.41;48.25;101224.16;5102503;27;45632;-76
2023/06/25 04:45:38;;;;;;;;;6.67;6.67;;;;;24.32;48.33;101224.59;5083690;27;45584;-77
2023/06/25 04:48:04;;;;;;;;;7.00;7.00;;;;;24.22;48.28;101197.41;5100115;27;45568;-76
2023/06/25 04:50:30;;;;;;;;;10.00;7.33;;;;;24.20;48.25;101196.59;5096609;27;45283;-76
2023/06/25 04:52:57;;;;;;;;;7.33;7.00;;;;;24.51;48.13;101235.31;5097099;27;45461;-76
2023/06/25 04:55:22;;;;;;;;;6.00;6.00;;;;;24.39;48.50;101215.31;5096971;27;45660;-76
2023/06/25 04:57:48;;;;;;;;;8.67;7.33;;;;;24.27;48.18;101178.44;5096633;27;46515;-77
2023/06/25 05:00:14;;;;;;;;;9.67;9.33;;;;;24.47;47.98;101213.19;5096885;27;45472;-76
2023/06/25 05:02:39;;;;;;;;;6.00;6.00;;;;;24.47;48.97;101245.31;5101287;27;45496;-76
2023/06/25 05:05:05;;;;;;;;;12.67;10.00;;;;;24.48;48.04;101230.97;5084301;27;45366;-76
2023/06/25 05:07:35;;;;;;;;;8.33;6.33;;;;;24.39;47.70;101207.28;5117504;27;46011;-76
2023/06/25 05:10:00;;;;;;;;;11.67;8.00;;;;;24.61;47.89;101238.44;5117056;27;45298;-75
2023/06/25 05:12:26;;;;;;;;;8.33;7.33;;;;;24.66;47.93;101233.72;5115979;27;45489;-75
2023/06/25 05:14:52;;;;;;;;;11.00;8.00;;;;;24.55;48.60;101229.72;5115875;27;45901;-76
2023/06/25 05:17:17;;;;;;;;;8.33;8.00;;;;;24.12;48.60;101158.63;5116876;27;45505;-75
2023/06/25 05:19:44;;;;;;;;;6.67;6.00;;;;;24.42;48.40;101217.00;5119085;27;45455;-76
2023/06/25 05:22:09;;;;;;;;;11.33;10.33;;;;;24.75;47.91;101244.84;5118992;27;45314;-75
2023/06/25 05:24:35;;;;;;;;;8.67;7.00;;;;;24.91;47.38;101252.97;5117257;27;45426;-74
2023/06/25 05:27:01;;;;;;;;;9.67;8.00;;;;;24.67;47.42;101219.38;5120351;27;45416;-76
2023/06/25 05:29:26;;;;;;;;;7.33;6.33;;;;;24.41;47.15;101167.94;5121496;27;45510;-76
2023/06/25 05:31:55;;;;;;;;;9.33;9.33;;;;;24.66;47.54;101213.16;5122123;27;45305;-77
2023/06/25 05:34:21;;;;;;;;;9.00;8.00;;;;;24.68;48.16;101234.53;5121880;27;45400;-76
2023/06/25 05:36:47;;;;;;;;;7.33;7.33;;;;;24.60;48.15;101209.91;5121644;27;46858;-76
2023/06/25 05:39:13;;;;;;;;;12.33;10.00;;;;;24.92;47.76;101238.66;5121488;27;45488;-77
2023/06/25 05:41:41;;;;;;;;;10.33;10.33;;;;;24.93;46.97;101255.59;5117545;27;45392;-77
2023/06/25 05:44:07;;;;;;;;;9.33;9.00;;;;;24.84;47.46;101243.50;5117370;27;45702;-77
2023/06/25 05:46:33;;;;;;;;;10.00;8.00;;;;;24.54;47.21;101217.31;5121046;27;45990;-76
2023/06/25 05:48:59;;;;;;;;;9.67;9.33;;;;;24.69;47.75;101246.94;5100158;27;45295;-76
2023/06/25 05:51:24;;;;;;;;;10.00;10.00;;;;;24.59;47.66;101226.94;5116856;27;45875;-76
2023/06/25 05:53:54;;;;;;;;;10.33;9.67;;;;;24.64;47.99;101241.81;5116586;27;45673;-77
2023/06/25 05:56:19;;;;;;;;;10.00;9.67;;;;;24.05;47.76;101160.75;5116473;27;45499;-75
2023/06/25 05:58:48;;;;;;;;;12.67;10.00;;;;;24.58;47.42;101243.91;5117025;27;45468;-77
2023/06/25 06:01:14;;;;;;;;;15.00;12.33;;;;;24.44;47.66;101231.16;5119725;27;45442;-76
2023/06/25 06:03:40;;;;;;;;;11.67;10.33;;;;;24.29;47.75;101197.97;5116570;27;45659;-76
2023/06/25 06:06:05;;;;;;;;;11.33;10.33;;;;;24.54;47.56;101241.41;5104639;27;45669;-78
2023/06/25 06:08:32;;;;;;;;;11.33;11.33;;;;;24.45;46.72;101219.53;5096135;27;45696;-76
2023/06/25 06:10:57;;;;;;;;;12.33;11.33;;;;;24.52;46.94;101242.41;5096266;27;45488;-77
2023/06/25 06:13:22;;;;;;;;;12.67;12.00;;;;;24.55;47.00;101242.25;5095599;27;45540;-77
2023/06/25 06:15:48;;;;;;;;;14.33;10.67;;;;;24.52;46.83;101216.50;5095592;27;45988;-76
2023/06/25 06:18:17;;;;;;;;;9.67;9.67;;;;;24.78;46.52;101226.91;5095456;27;45622;-76
2023/06/25 06:20:42;;;;;;;;;11.33;9.67;;;;;24.87;46.13;101247.88;5098390;27;45546;-76
2023/06/25 06:23:08;;;;;;;;;7.00;7.00;;;;;24.84;46.38;101234.59;5099960;27;45529;-77
2023/06/25 06:25:34;;;;;;;;;13.67;11.67;;;;;24.89;45.73;101232.56;5095175;27;46016;-77
2023/06/25 06:28:00;;;;;;;;;10.00;10.00;;;;;24.82;45.22;101229.34;5078421;27;45390;-76
2023/06/25 06:30:26;;;;;;;;;11.33;10.33;;;;;24.83;45.72;101236.44;5099862;27;45436;-77
2023/06/25 06:32:51;;;;;;;;;13.33;12.67;;;;;24.62;45.50;101198.16;5098671;27;45689;-79
2023/06/25 06:35:18;;;;;;;;;12.33;9.33;;;;;24.84;45.60;101202.47;5115640;27;45635;-76
2023/06/25 06:37:44;;;;;;;;;14.00;14.00;;;;;24.75;45.55;101196.63;5120919;27;45454;-75
2023/06/25 06:40:10;;;;;;;;;17.33;15.33;;;;;25.02;45.56;101230.16;5116223;27;45522;-75
2023/06/25 06:42:35;;;;;;;;;14.00;14.00;;;;;25.10;45.92;101233.28;5117079;27;45452;-74
2023/06/25 06:45:03;;;;;;;;;10.67;9.33;;;;;25.25;45.31;101234.34;5120822;27;45829;-77
2023/06/25 06:47:29;;;;;;;;;13.00;11.00;;;;;24.96;44.88;101164.31;5121360;27;45738;-77
2023/06/25 06:49:54;;;;;;;;;8.33;8.00;;;;;25.34;44.77;101216.00;5120854;27;45296;-75
2023/06/25 06:52:25;;;;;;;;;15.33;11.67;;;;;25.41;44.82;101227.25;5106870;27;45454;-76
2023/06/25 06:54:51;;;;;;;;;9.33;9.33;;;;;25.45;44.54;101217.25;5095035;27;45942;-75
2023/06/25 06:57:19;;;;;;;;;10.33;10.33;;;;;25.30;44.19;101192.97;5078019;27;45515;-76
2023/06/25 06:59:47;;;;;;;;;14.33;12.67;;;;;25.66;44.21;101229.50;5099282;27;45473;-77
2023/06/25 07:02:13;;;;;;;;;13.67;13.67;;;;;25.62;44.26;101190.38;5102560;27;45283;-75
2023/06/25 07:04:39;;;;;;;;;11.00;10.67;;;;;25.82;43.67;101200.03;5095745;27;46087;-76
2023/06/25 07:07:05;;;;;;;;;17.00;14.33;;;;;25.91;43.52;101204.94;5115182;27;45413;-76
2023/06/25 07:09:32;;;;;;;;;10.67;10.00;;;;;26.01;43.30;101194.56;5114212;27;45364;-75
2023/06/25 07:11:58;;;;;;;;;13.33;13.33;;;;;25.97;42.93;101228.75;5106313;27;45568;-76
2023/06/25 07:14:23;;;;;;;;;13.00;10.00;;;;;25.48;43.03;101152.72;5084868;27;45677;-75
2023/06/25 07:16:49;;;;;;;;;12.67;12.67;;;;;25.90;43.14;101219.28;5106581;27;45936;-75
2023/06/25 07:19:15;;;;;;;;;12.00;11.00;;;;;25.30;43.26;101114.34;5103701;27;45488;-75
2023/06/25 07:21:53;;;;;;;;;13.67;13.67;;;;;26.00;43.46;101225.03;5109632;27;45488;-75
2023/06/25 07:24:31;;;;;;;;;12.00;11.33;;;;;25.87;43.65;101189.09;5108472;27;45636;-77
2023/06/25 07:26:57;;;;;;;;;16.00;12.00;;;;;26.04;42.93;101180.09;5103100;27;45492;-76
2023/06/25 07:29:38;;;;;;;;;13.67;12.33;;;;;26.33;42.74;101208.84;5105525;27;45397;-78
2023/06/25 07:32:04;;;;;;;;;12.00;11.33;;;;;26.23;43.27;101216.56;5097040;27;45586;-77
2023/06/25 07:34:31;;;;;;;;;20.00;18.33;;;;;25.98;42.95;101157.16;5104404;27;45646;-74
2023/06/25 07:36:57;;;;;;;;;16.33;14.33;;;;;25.92;42.91;101146.78;5087554;27;45532;-75
2023/06/25 07:39:29;;;;;;;;;19.00;17.00;;;;;26.35;42.81;101211.47;5103518;27;45520;-77
2023/06/25 07:41:56;;;;;;;;;14.33;13.33;;;;;26.38;43.12;101187.97;5098200;27;45597;-75
2023/06/25 07:44:22;;;;;;;;;16.33;16.33;;;;;26.59;42.59;101195.78;5104532;27;45479;-75
2023/06/25 07:46:51;;;;;;;;;9.67;9.00;;;;;26.83;42.20;101215.84;5118783;27;45472;-75
2023/06/25 07:49:18;;;;;;;;;14.25;14.25;;;;;26.77;41.70;101192.03;5118844;27;45579;-76
2023/06/25 07:51:45;;;;;;;;;12.25;12.25;;;;;26.77;41.91;101175.06;5117614;27;45551;-74
2023/06/25 07:54:12;;;;;;;;;13.00;12.00;;;;;27.03;41.75;101193.19;5114662;27;45833;-74
2023/06/25 07:56:37;;;;;;;;;14.67;14.67;;;;;27.10;41.21;101198.16;5117333;27;45735;-74
2023/06/25 07:59:03;;;;;;;;;19.33;15.33;;;;;26.96;41.50;101162.25;5115361;27;45456;-76
2023/06/25 08:01:29;;;;;;;;;15.33;15.33;;;;;27.34;41.17;101191.34;5115590;27;45650;-77
2023/06/25 08:03:57;;;;;;;;;14.33;14.33;;;;;27.42;40.86;101201.63;5115727;27;45959;-77
2023/06/25 08:06:23;;;;;;;;;15.00;14.00;;;;;27.25;40.65;101176.63;5105550;27;45431;-78
2023/06/25 08:08:49;;;;;;;;;20.67;15.00;;;;;27.05;40.13;101156.31;5098305;27;45833;-76
2023/06/25 08:11:14;;;;;;;;;18.25;14.75;;;;;27.22;40.11;101157.16;5098250;27;45390;-77
2023/06/25 08:13:40;;;;;;;;;18.67;16.00;;;;;27.56;40.67;101192.72;5097569;27;45582;-77
2023/06/25 08:16:05;;;;;;;;;14.33;14.00;;;;;27.70;40.39;101185.50;5097626;27;45503;-75
2023/06/25 08:18:32;;;;;;;;;19.33;17.33;;;;;27.76;39.65;101180.69;5098173;27;45459;-77
2023/06/25 08:20:57;;;;;;;;;16.00;15.50;;;;;27.90;40.08;101187.00;5098945;27;45307;-75
2023/06/25 08:23:23;;;;;;;;;14.67;14.67;;;;;28.00;39.59;101192.66;5101517;27;45450;-78
2023/06/25 08:25:53;;;;;;;;;13.50;12.00;;;;;28.06;39.89;101184.16;5098760;27;45264;-77
2023/06/25 08:28:22;;;;;;;;;16.33;14.33;;;;;28.01;39.29;101151.28;5097469;27;45377;-77
2023/06/25 08:30:48;;;;;;;;;16.50;16.00;;;;;28.15;39.20;101158.47;5098073;27;45831;-77
2023/06/25 08:33:13;;;;;;;;;14.25;14.00;;;;;28.08;39.19;101147.22;5097451;27;45405;-77
2023/06/25 08:35:39;;;;;;;;;16.00;16.00;;;;;28.28;38.49;101170.16;5097327;27;45517;-76
2023/06/25 08:38:08;;;;;;;;;20.67;17.33;;;;;28.22;38.83;101148.16;5097688;27;45428;-76
2023/06/25 08:40:43;;;;;;;;;14.50;14.50;;;;;28.34;38.85;101163.50;5097803;27;45617;-76
2023/06/25 08:43:08;;;;;;;;;15.75;15.75;;;;;28.37;38.37;101171.38;5101128;27;46596;-77
2023/06/25 08:45:34;;;;;;;;;15.25;15.00;;;;;28.42;37.92;101171.94;5101572;27;45419;-76
2023/06/25 08:48:04;;;;;;;;;15.75;14.25;;;;;28.23;38.01;101139.97;5101835;27;45607;-75
2023/06/25 08:50:30;;;;;;;;;17.25;15.25;;;;;28.50;38.54;101164.25;5099380;27;45369;-79
2023/06/25 08:52:56;;;;;;;;;20.25;16.00;;;;;28.21;38.21;101098.81;5097203;27;45438;-75
2023/06/25 08:55:26;;;;;;;;;15.50;15.25;;;;;28.66;38.19;101165.91;5099071;27;45370;-76
2023/06/25 08:57:52;;;;;;;;;17.50;17.50;;;;;28.68;37.58;101164.84;5100932;27;45348;-79
2023/06/25 09:00:18;;;;;;;;;15.00;14.00;;;;;28.67;37.43;101133.47;5097228;27;45303;-74
2023/06/25 09:02:44;;;;;;;;;16.25;16.25;;;;;28.84;36.75;101161.97;5097176;27;46530;-77
2023/06/25 09:05:13;;;;;;;;;18.25;17.00;;;;;28.35;36.91;101079.03;5096572;27;45796;-76
2023/06/25 09:07:43;;;;;;;;;18.00;16.25;;;;;28.76;36.60;101140.09;5098038;27;45415;-76
2023/06/25 09:10:09;;;;;;;;;13.00;13.00;;;;;28.82;37.12;101136.97;5098558;27;45536;-78
2023/06/25 09:12:35;;;;;;;;;14.25;14.25;;;;;28.92;37.43;101142.56;5098778;27;45536;-77
2023/06/25 09:15:01;;;;;;;;;18.75;17.25;;;;;29.14;36.96;101142.88;5100846;27;45408;-74
2023/06/25 09:17:27;;;;;;;;;19.75;18.75;;;;;29.17;36.10;101153.44;5100176;27;45444;-74
2023/06/25 09:19:53;;;;;;;;;18.25;15.75;;;;;29.15;36.92;101146.41;5102240;27;45502;-73
2023/06/25 09:22:19;;;;;;;;;17.75;16.25;;;;;29.11;36.94;101120.63;5098248;27;46137;-74
2023/06/25 09:24:47;;;;;;;;;16.25;16.25;;;;;28.73;36.18;101054.88;5096949;27;45580;-74
2023/06/25 09:27:13;;;;;;;;;16.50;15.00;;;;;29.12;36.38;101122.38;5096520;27;45309;-80
2023/06/25 09:29:39;;;;;;;;;18.50;17.75;;;;;29.05;36.17;101121.03;5098431;27;45538;-77
2023/06/25 09:32:11;;;;;;;;;15.25;15.25;;;;;29.29;36.45;101148.16;5099659;27;45719;-75
2023/06/25 09:34:40;;;;;;;;;19.25;17.50;;;;;29.38;35.74;101134.03;5101077;27;45422;-78
2023/06/25 09:37:06;;;;;;;;;14.25;13.00;;;;;29.08;36.21;101100.13;5096746;27;45341;-77
2023/06/25 09:39:31;;;;;;;;;16.50;16.25;;;;;29.26;36.21;101133.06;5096734;27;45445;-78
2023/06/25 09:42:00;;;;;;;;;17.50;14.00;;;;;29.00;35.82;101075.50;5097451;27;45371;-77
2023/06/25 09:44:27;;;;;;;;;20.00;16.50;;;;;29.35;34.85;101110.81;5098890;27;45443;-75
2023/06/25 09:47:00;;;;;;;;;18.75;17.00;;;;;29.47;34.48;101127.97;5096067;27;45479;-78
2023/06/25 09:49:30;;;;;;;;;17.50;15.75;;;;;29.50;34.90;101118.78;5096467;27;45360;-76
2023/06/25 09:52:02;;;;;;;;;16.00;16.00;;;;;29.60;34.18;101125.25;5096522;27;45409;-77
2023/06/25 09:54:29;;;;;;;;;19.75;15.75;;;;;29.45;34.18;101094.84;5094911;27;45527;-76
2023/06/25 09:56:58;;;;;;;;;16.25;16.25;;;;;29.67;34.28;101123.00;5098006;27;45344;-75
2023/06/25 09:59:26;;;;;;;;;18.75;17.25;;;;;29.72;33.79;101120.81;5097595;27;45268;-80
2023/06/25 10:01:52;;;;;;;;;15.25;15.00;;;;;29.78;34.20;101115.84;5096121;27;45569;-76
2023/06/25 10:04:19;;;;;;;;;16.25;15.00;;;;;29.71;33.62;101090.28;5096355;27;45486;-80
2023/06/25 10:06:46;;;;;;;;;15.25;14.25;;;;;29.85;33.73;101091.09;5114081;27;45519;-76
2023/06/25 10:09:13;;;;;;;;;18.00;16.25;;;;;29.89;34.04;101090.75;5116835;27;45277;-76
2023/06/25 10:11:49;;;;;;;;;16.50;16.25;;;;;29.91;32.83;101096.91;5118718;27;45349;-77
2023/06/25 10:14:15;;;;;;;;;18.00;17.25;;;;;29.82;32.99;101061.63;5121208;27;45436;-78
2023/06/25 10:16:41;;;;;;;;;21.50;18.25;;;;;29.48;33.16;100991.22;5121114;27;45445;-76
2023/06/25 10:19:07;;;;;;;;;19.00;15.25;;;;;30.27;32.87;101094.31;5120337;27;45365;-76
2023/06/25 10:21:33;;;;;;;;;17.50;16.50;;;;;30.16;32.26;101051.84;5116175;27;45477;-75
2023/06/25 10:24:01;;;;;;;;;15.25;15.25;;;;;29.74;32.57;100970.41;5116253;27;45456;-76
2023/06/25 10:26:28;;;;;;;;;16.25;16.25;;;;;30.54;31.95;101092.22;5116631;27;45389;-76
2023/06/25 10:28:54;;;;;;;;;16.75;16.75;;;;;30.58;31.93;101093.69;5096946;27;45343;-78
2023/06/25 10:31:20;;;;;;;;;20.50;14.75;;;;;30.69;32.13;101095.56;5115913;27;45516;-75
2023/06/25 10:33:50;;;;;;;;;18.50;16.00;;;;;30.53;31.76;101059.88;5116148;27;45509;-75
2023/06/25 10:36:23;;;;;;;;;16.00;16.00;;;;;30.82;31.78;101095.47;5097894;27;45402;-76
2023/06/25 10:38:49;;;;;;;;;16.50;15.25;;;;;30.61;31.49;101052.91;5117170;27;45445;-76
2023/06/25 10:41:15;;;;;;;;;17.00;16.00;;;;;30.94;30.79;101102.66;5120193;27;45495;-75
2023/06/25 10:43:40;;;;;;;;;15.75;15.00;;;;;30.91;31.19;101075.84;5116977;27;45453;-76
2023/06/25 10:46:06;;;;;;;;;19.00;15.50;;;;;30.90;31.02;101066.03;5115253;27;45448;-77
2023/06/25 10:48:34;;;;;;;;;16.25;15.25;;;;;30.95;29.65;101049.44;5121437;27;45271;-78
2023/06/25 10:51:00;;;;;;;;;16.00;14.25;;;;;30.99;29.32;101061.72;5102311;27;47692;-77
2023/06/25 10:53:25;;;;;;;;;14.00;14.00;;;;;31.07;29.38;101072.81;5119700;27;45432;-77
2023/06/25 10:55:52;;;;;;;;;16.50;16.25;;;;;31.06;29.89;101060.25;5119211;27;45319;-78
2023/06/25 10:58:20;;;;;;;;;16.50;16.50;;;;;31.13;29.78;101052.53;5117863;27;45515;-77
2023/06/25 11:00:53;;;;;;;;;16.25;16.00;;;;;31.35;30.24;101063.38;5116477;27;45465;-76
2023/06/25 11:03:25;;;;;;;;;16.00;15.00;;;;;31.48;29.96;101071.38;5117911;27;45867;-77
2023/06/25 11:05:52;;;;;;;;;17.50;15.25;;;;;31.54;29.70;101067.31;5092804;27;45526;-77
2023/06/25 11:08:18;;;;;;;;;15.75;15.00;;;;;31.62;29.39;101079.22;5100512;27;45457;-75
2023/06/25 11:10:44;;;;;;;;;16.50;14.75;;;;;31.57;28.30;101065.22;5100170;27;45390;-75
2023/06/25 11:13:11;;;;;;;;;17.00;14.50;;;;;31.10;28.11;100980.59;5081926;27;45526;-75
2023/06/25 11:15:36;;;;;;;;;17.50;13.50;;;;;31.56;27.28;101076.16;5081461;27;45425;-81